CDT,Max TemperatureF,Mean TemperatureF,Min TemperatureF,Max Dew PointF,MeanDew PointF,Min DewpointF,Max Humidity, Mean Humidity, Min Humidity, Max Sea Level PressureIn, Mean Sea Level PressureIn, Min Sea Level PressureIn, Max VisibilityMiles, Mean VisibilityMiles, Min VisibilityMiles, Max Wind SpeedMPH, Mean Wind SpeedMPH, Max Gust SpeedMPH,PrecipitationIn, CloudCover, Events, WindDirDegrees
2013-7-1,82,69,55,56,52,47,83,58,32,30.17,30.14,30.11,10,10,4,17,8,23,0.00,0,,22
2013-7-2,82,70,57,59,50,40,86,55,23,30.13,30.09,30.04,10,10,7,21,9,25,0.00,0,,2
2013-7-3,82,68,54,56,53,49,93,63,33,30.08,30.03,29.96,10,10,4,13,6,16,0.00,2,,164
2013-7-4,87,72,57,60,56,53,87,60,32,30.01,29.97,29.92,10,10,8,21,9,25,0.00,0,,184
2013-7-5,89,74,58,61,58,55,87,61,34,29.96,29.92,29.88,10,10,10,24,12,32,0.00,1,,175
2013-7-6,90,78,66,64,61,59,78,58,37,29.93,29.89,29.83,10,10,10,23,13,35,0.00,0,,170
2013-7-7,91,80,68,67,65,63,87,66,44,29.96,29.87,29.83,10,10,7,20,9,28,0.08,2,Thunderstorm,204
2013-7-8,91,80,68,69,67,63,97,69,41,29.96,29.93,29.88,10,10,7,12,3,15,0.03,1,Rain-Thunderstorm,313
2013-7-9,91,81,70,72,70,67,93,72,50,29.95,29.89,29.85,10,9,2,20,9,26,0.18,2,Rain-Thunderstorm,225
2013-7-10,81,70,59,66,57,52,87,63,39,30.07,30.02,29.93,10,10,9,21,10,26,0.00,0,,334
2013-7-11,83,69,54,59,54,52,87,62,36,30.13,30.08,30.02,10,9,6,17,7,22,0.00,0,,156
2013-7-12,86,73,60,60,57,55,84,62,40,30.07,30.02,29.97,10,10,9,24,15,30,0.00,0,,166
2013-7-13,73,67,61,62,58,53,90,77,63,30.20,30.07,29.99,10,7,0,22,12,29,1.28,4,Fog-Rain-Thunderstorm,136
2013-7-14,84,74,63,65,63,60,93,72,51,30.20,30.14,30.09,10,9,6,16,9,22,0.00,1,,151
2013-7-15,87,73,59,71,65,57,100,78,55,30.26,30.21,30.16,10,8,2,14,5,17,0.00,2,,147
2013-7-16,91,81,70,71,69,65,97,71,44,30.25,30.22,30.19,10,9,5,13,6,18,0.00,1,,191
2013-7-17,92,81,70,73,69,66,90,67,44,30.29,30.23,30.15,10,10,7,16,5,21,T,2,Rain-Thunderstorm,208
2013-7-18,93,82,71,69,67,65,90,66,41,30.16,30.01,29.87,10,10,10,23,12,29,0.00,0,,217
2013-7-19,88,76,64,69,64,57,84,65,45,29.92,29.86,29.79,10,10,10,21,11,26,0.00,1,Thunderstorm,282
2013-7-20,85,72,59,63,60,56,90,67,43,29.96,29.92,29.88,10,10,10,15,5,17,0.00,0,,291
2013-7-21,85,73,61,66,63,59,93,70,47,29.92,29.86,29.81,10,10,9,15,5,20,T,1,Rain,153
2013-7-22,92,77,62,71,65,59,100,75,49,29.84,29.77,29.68,10,8,2,20,10,26,0.03,3,Rain-Thunderstorm,196
2013-7-23,77,66,54,58,54,50,93,67,41,30.03,29.95,29.83,10,10,10,18,8,22,T,1,Rain,354
2013-7-24,77,63,49,57,53,47,96,71,46,30.10,30.05,30.01,10,10,10,10,3,16,0.00,2,,183
2013-7-25,86,72,57,63,61,55,93,68,42,30.03,30.00,29.93,10,7,0,29,10,38,1.64,6,Fog-Rain-Thunderstorm,170
2013-7-26,73,63,53,64,56,49,100,77,53,30.06,29.99,29.92,10,10,7,26,13,31,0.00,6,,299
2013-7-27,68,59,49,50,47,42,89,66,42,30.10,30.05,29.97,10,10,10,22,10,28,0.00,5,,319
2013-7-28,71,59,47,51,47,44,89,67,44,30.08,30.03,29.97,10,10,10,15,7,20,0.00,2,,321
2013-7-29,75,61,47,56,51,46,93,70,46,30.15,30.11,30.08,10,9,2,15,6,20,0.00,1,,157
2013-7-30,74,68,61,64,61,55,87,78,68,30.12,30.09,30.06,10,10,8,8,4,12,0.00,8,,148
2013-7-31,79,69,59,65,61,55,97,72,47,30.13,30.09,30.02,10,6,0,16,7,21,T,4,Fog,278